Time;durP1;ratioP1;P1;durP2;ratioP2;P2;SDS_P1;SDS_P2;PMS_P1;PMS_P2;Temp;Humidity;BMP_temperature;BMP_pressure;BME280_temperature;BME280_humidity;BME280_pressure;Samples;Min_cycle;Max_cycle;Signal;HPM_P1;HPM_P2
2022/11/14 00:00:41;;;;;;;7.32;3.95;;;14.40;99.90;;;;;;5072057;28;20075;-74
2022/11/14 00:03:08;;;;;;;9.50;4.05;;;14.40;99.90;;;;;;5060333;28;20079;-74
2022/11/14 00:05:42;;;;;;;14.52;4.65;;;14.30;99.90;;;;;;5073466;28;20358;-73
2022/11/14 00:08:19;;;;;;;8.75;4.03;;;14.30;99.90;;;;;;5062175;28;20028;-76
2022/11/14 00:10:47;;;;;;;16.92;4.63;;;14.30;99.90;;;;;;5069337;28;20008;-75
2022/11/14 00:13:13;;;;;;;10.82;3.65;;;14.20;99.90;;;;;;5066623;28;20051;-76
2022/11/14 00:15:40;;;;;;;14.57;4.15;;;14.30;99.90;;;;;;5069706;28;20123;-75
2022/11/14 00:18:05;;;;;;;6.00;2.97;;;14.30;99.90;;;;;;5066593;28;20040;-75
2022/11/14 00:20:32;;;;;;;11.63;4.25;;;14.30;99.90;;;;;;5069491;28;20017;-75
2022/11/14 00:22:58;;;;;;;17.17;4.82;;;14.30;99.90;;;;;;5069764;28;20029;-75
2022/11/14 00:25:24;;;;;;;10.80;4.15;;;14.30;99.90;;;;;;5069566;28;20025;-75
2022/11/14 00:27:49;;;;;;;10.75;3.70;;;14.30;99.90;;;;;;5074260;28;20056;-75
2022/11/14 00:30:15;;;;;;;9.95;4.35;;;14.30;99.90;;;;;;5069272;28;20949;-76
2022/11/14 00:32:41;;;;;;;17.42;5.45;;;14.30;99.90;;;;;;5075546;28;20179;-75
2022/11/14 00:35:10;;;;;;;13.25;3.80;;;14.30;99.90;;;;;;5065823;28;20029;-75
2022/11/14 00:37:36;;;;;;;14.02;4.18;;;14.20;99.90;;;;;;5066993;28;20037;-75
2022/11/14 00:40:03;;;;;;;24.00;4.78;;;14.20;99.90;;;;;;5095774;28;20055;-76
2022/11/14 00:42:28;;;;;;;6.22;3.80;;;14.20;99.90;;;;;;5068849;28;20024;-75
2022/11/14 00:44:54;;;;;;;12.75;4.30;;;14.10;99.90;;;;;;5068106;28;20908;-75
2022/11/14 00:47:20;;;;;;;11.68;4.47;;;14.10;99.90;;;;;;5068619;28;20024;-75
2022/11/14 00:49:46;;;;;;;14.10;4.40;;;14.10;99.90;;;;;;5069595;28;20020;-75
2022/11/14 00:52:12;;;;;;;11.85;3.97;;;14.20;99.90;;;;;;5070804;28;20025;-76
2022/11/14 00:54:38;;;;;;;14.57;3.63;;;14.20;99.90;;;;;;5071701;28;20116;-76
2022/11/14 00:57:03;;;;;;;12.93;4.30;;;14.20;99.90;;;;;;5073593;28;20017;-76
2022/11/14 00:59:29;;;;;;;12.05;4.07;;;14.10;99.90;;;;;;5097082;28;20037;-76
2022/11/14 01:01:55;;;;;;;13.98;3.90;;;14.10;99.90;;;;;;5064937;28;20021;-75
2022/11/14 01:04:21;;;;;;;9.55;4.00;;;14.10;99.90;;;;;;5070357;28;20024;-75
2022/11/14 01:06:46;;;;;;;21.08;5.00;;;14.10;99.90;;;;;;5066543;28;20520;-75
2022/11/14 01:09:12;;;;;;;14.75;5.00;;;14.10;99.90;;;;;;5067351;28;20024;-75
2022/11/14 01:11:38;;;;;;;12.00;4.53;;;14.20;99.90;;;;;;5063356;28;20082;-75
2022/11/14 01:14:07;;;;;;;13.25;4.40;;;14.20;99.90;;;;;;5099308;28;20120;-75
2022/11/14 01:16:34;;;;;;;20.27;5.68;;;14.20;99.90;;;;;;5064288;28;20043;-76
2022/11/14 01:19:01;;;;;;;22.25;5.50;;;14.10;99.90;;;;;;5071242;28;20024;-76
2022/11/14 01:21:27;;;;;;;12.45;4.15;;;14.10;99.90;;;;;;5066320;28;20399;-75
2022/11/14 01:23:53;;;;;;;19.15;4.38;;;14.10;99.90;;;;;;5069880;28;20040;-75
2022/11/14 01:26:18;;;;;;;11.50;3.90;;;14.10;99.90;;;;;;5071406;28;20510;-75
2022/11/14 01:28:44;;;;;;;19.55;5.32;;;14.00;99.90;;;;;;5072174;28;20056;-75
2022/11/14 01:31:20;;;;;;;12.38;4.90;;;14.00;99.90;;;;;;5074581;28;20155;-75
2022/11/14 01:33:49;;;;;;;21.80;6.68;;;14.00;99.90;;;;;;5092367;28;20029;-76
2022/11/14 01:36:15;;;;;;;14.57;4.70;;;14.10;99.90;;;;;;5068716;28;20406;-75
2022/11/14 01:38:41;;;;;;;14.20;4.90;;;14.10;99.90;;;;;;5062024;28;20083;-74
2022/11/14 01:41:08;;;;;;;18.73;4.80;;;14.20;99.90;;;;;;5070756;28;20025;-73
2022/11/14 01:43:37;;;;;;;18.15;4.68;;;14.10;99.90;;;;;;5063022;28;20116;-74
2022/11/14 01:46:37;;;;;;;17.20;5.10;;;14.10;99.90;;;;;;5072385;28;20023;-74
2022/11/14 01:49:04;;;;;;;16.80;4.27;;;14.00;99.90;;;;;;5063258;28;20053;-75
2022/11/14 01:51:34;;;;;;;13.80;4.72;;;13.90;99.90;;;;;;5068814;28;20259;-74
2022/11/14 01:54:12;;;;;;;10.17;4.13;;;13.90;99.90;;;;;;5062661;28;20067;-74
2022/11/14 01:56:44;;;;;;;14.10;5.25;;;13.90;99.90;;;;;;5075914;28;20094;-74
2022/11/14 01:59:18;;;;;;;11.65;5.05;;;13.90;99.90;;;;;;5069487;28;20040;-74
2022/11/14 02:01:47;;;;;;;20.25;4.70;;;13.90;99.90;;;;;;5063904;28;20381;-74
2022/11/14 02:04:22;;;;;;;18.60;5.93;;;13.80;99.90;;;;;;5063906;28;20500;-74
2022/11/14 02:06:49;;;;;;;19.63;5.78;;;13.80;99.90;;;;;;5065987;28;20017;-75
2022/11/14 02:09:15;;;;;;;10.38;4.38;;;13.70;99.90;;;;;;5065105;28;20021;-75
2022/11/14 02:11:43;;;;;;;14.25;4.32;;;13.80;99.90;;;;;;5062031;28;20388;-75
2022/11/14 02:14:10;;;;;;;12.55;5.47;;;13.70;99.90;;;;;;5068436;28;20036;-74
2022/11/14 02:16:38;;;;;;;13.25;4.80;;;13.80;99.90;;;;;;5062886;28;20025;-74
2022/11/14 02:19:04;;;;;;;18.08;5.40;;;13.90;99.90;;;;;;5069393;28;20120;-74
2022/11/14 02:21:30;;;;;;;19.10;5.03;;;13.90;99.90;;;;;;5064603;28;20021;-75
2022/11/14 02:23:56;;;;;;;16.25;4.80;;;13.90;99.90;;;;;;5067513;28;20037;-75
2022/11/14 02:26:22;;;;;;;15.30;5.45;;;13.90;99.90;;;;;;5068353;28;20104;-74
2022/11/14 02:28:48;;;;;;;15.00;4.05;;;14.00;99.90;;;;;;5071010;28;20067;-74
2022/11/14 02:31:15;;;;;;;14.55;4.60;;;13.90;99.90;;;;;;5055784;28;20081;-73
2022/11/14 02:33:41;;;;;;;12.70;5.32;;;13.90;99.90;;;;;;5071698;28;20048;-74
2022/11/14 02:36:08;;;;;;;17.25;5.00;;;13.90;99.90;;;;;;5069406;28;20060;-74
2022/11/14 02:38:34;;;;;;;13.70;4.82;;;13.90;99.90;;;;;;5060375;28;20111;-74
2022/11/14 02:41:00;;;;;;;12.60;4.75;;;14.00;99.90;;;;;;5095208;28;20087;-74
2022/11/14 02:43:26;;;;;;;17.90;5.07;;;14.00;99.90;;;;;;5059297;28;20024;-74
2022/11/14 02:45:52;;;;;;;14.55;4.95;;;13.90;99.90;;;;;;5095544;28;20017;-75
2022/11/14 02:48:18;;;;;;;19.58;5.80;;;13.90;99.90;;;;;;5065109;28;20040;-74
2022/11/14 02:50:44;;;;;;;8.45;4.55;;;13.90;99.90;;;;;;5069750;28;20040;-74
2022/11/14 02:53:09;;;;;;;10.93;5.50;;;14.00;99.90;;;;;;5066247;28;20574;-74
2022/11/14 02:55:35;;;;;;;13.98;4.72;;;14.00;99.90;;;;;;5070391;28;20063;-75
2022/11/14 02:58:01;;;;;;;18.33;5.93;;;14.10;99.90;;;;;;5069800;28;20025;-75
2022/11/14 03:00:27;;;;;;;12.50;5.18;;;14.10;99.90;;;;;;5070451;28;20079;-75
2022/11/14 03:02:53;;;;;;;16.15;5.75;;;14.10;99.90;;;;;;5106231;28;20016;-73
2022/11/14 03:05:19;;;;;;;17.33;5.80;;;14.10;99.90;;;;;;5069411;28;20048;-75
2022/11/14 03:07:45;;;;;;;10.02;4.65;;;14.10;99.90;;;;;;5061737;28;20056;-74
2022/11/14 03:10:12;;;;;;;11.27;5.47;;;14.00;99.90;;;;;;5063279;28;20028;-74
2022/11/14 03:12:38;;;;;;;20.38;5.28;;;14.00;99.90;;;;;;5068755;28;20020;-74
2022/11/14 03:15:06;;;;;;;12.70;5.40;;;14.00;99.90;;;;;;5066067;28;20517;-74
2022/11/14 03:17:33;;;;;;;16.85;5.38;;;14.00;99.90;;;;;;5065464;28;20051;-74
2022/11/14 03:19:59;;;;;;;15.63;5.03;;;14.10;99.90;;;;;;5066817;28;20098;-75
2022/11/14 03:22:26;;;;;;;12.13;4.53;;;14.10;99.90;;;;;;5073385;28;20032;-75
2022/11/14 03:24:52;;;;;;;15.82;4.85;;;14.20;99.90;;;;;;5065570;28;20040;-74
2022/11/14 03:27:19;;;;;;;15.13;4.88;;;14.20;99.90;;;;;;5076607;28;20031;-76
2022/11/14 03:29:46;;;;;;;21.08;5.22;;;14.30;99.90;;;;;;5067577;28;20489;-75
2022/11/14 03:32:12;;;;;;;9.57;5.53;;;14.30;99.90;;;;;;5078535;28;20058;-74
2022/11/14 03:34:38;;;;;;;21.42;5.28;;;14.40;99.90;;;;;;5071052;28;20550;-75
2022/11/14 03:37:04;;;;;;;16.10;5.90;;;14.40;99.90;;;;;;5074579;28;20036;-75
2022/11/14 03:39:30;;;;;;;18.25;6.00;;;14.40;99.90;;;;;;5069433;28;20029;-74
2022/11/14 03:41:55;;;;;;;10.93;5.95;;;14.40;99.90;;;;;;5069256;28;20390;-75
2022/11/14 03:44:21;;;;;;;11.73;5.18;;;14.40;99.90;;;;;;5068175;28;20039;-74
2022/11/14 03:46:47;;;;;;;15.68;5.15;;;14.40;99.90;;;;;;5071864;28;20029;-74
2022/11/14 03:49:13;;;;;;;12.18;5.60;;;14.30;99.90;;;;;;5093492;28;20123;-74
2022/11/14 03:51:39;;;;;;;10.80;4.80;;;14.30;99.90;;;;;;5074596;28;20032;-75
2022/11/14 03:54:04;;;;;;;14.50;5.72;;;14.30;99.90;;;;;;5068995;28;20492;-75
2022/11/14 03:56:30;;;;;;;12.57;5.38;;;14.30;99.90;;;;;;5077708;28;20021;-74
2022/11/14 03:58:56;;;;;;;16.40;6.20;;;14.40;99.90;;;;;;5070367;28;20516;-73
2022/11/14 04:01:22;;;;;;;12.32;5.55;;;14.50;99.90;;;;;;5068475;28;20104;-74
2022/11/14 04:03:48;;;;;;;17.65;6.78;;;14.50;99.90;;;;;;5062490;28;20115;-74
2022/11/14 04:06:14;;;;;;;13.27;4.93;;;14.50;99.90;;;;;;5069084;28;20029;-74
2022/11/14 04:08:40;;;;;;;19.95;7.65;;;14.50;99.90;;;;;;5063835;28;20040;-75
2022/11/14 04:11:06;;;;;;;19.20;5.85;;;14.50;99.90;;;;;;5066371;28;20056;-73
2022/11/14 04:13:32;;;;;;;12.38;6.20;;;14.50;99.90;;;;;;5097593;28;20029;-74
2022/11/14 04:15:58;;;;;;;14.52;6.25;;;14.50;99.90;;;;;;5068873;28;20035;-75
2022/11/14 04:18:25;;;;;;;18.67;6.07;;;14.40;99.90;;;;;;5095705;28;20030;-75
2022/11/14 04:20:51;;;;;;;15.27;6.28;;;14.50;99.90;;;;;;5066212;28;20056;-74
2022/11/14 04:23:17;;;;;;;11.27;5.80;;;14.40;99.90;;;;;;5068231;28;20045;-74
2022/11/14 04:25:44;;;;;;;28.40;7.07;;;14.50;99.90;;;;;;5070252;28;20028;-73
2022/11/14 04:28:11;;;;;;;19.83;6.32;;;14.50;99.90;;;;;;5070554;28;20086;-73
2022/11/14 04:30:37;;;;;;;16.25;5.50;;;14.50;99.90;;;;;;5071771;28;20060;-74
2022/11/14 04:33:03;;;;;;;23.85;7.28;;;14.50;99.90;;;;;;5075074;28;20078;-74
2022/11/14 04:35:29;;;;;;;13.85;5.22;;;14.50;99.90;;;;;;5067683;28;20020;-75
2022/11/14 04:37:54;;;;;;;26.75;7.30;;;14.60;99.90;;;;;;5065826;28;20017;-74
2022/11/14 04:40:20;;;;;;;14.88;6.63;;;14.60;99.90;;;;;;5067077;28;20024;-73
2022/11/14 04:42:47;;;;;;;20.48;6.45;;;14.60;99.90;;;;;;5067827;28;20048;-73
2022/11/14 04:45:13;;;;;;;20.88;7.05;;;14.50;99.90;;;;;;5069336;28;20033;-74
2022/11/14 04:47:41;;;;;;;13.80;6.30;;;14.50;99.90;;;;;;5068363;28;20591;-73
2022/11/14 04:50:07;;;;;;;21.98;7.20;;;14.50;99.90;;;;;;5067651;28;20021;-74
2022/11/14 04:52:33;;;;;;;20.13;6.90;;;14.50;99.90;;;;;;5066048;28;20043;-73
2022/11/14 04:54:59;;;;;;;24.02;7.25;;;14.50;99.90;;;;;;5068648;28;20413;-75
2022/11/14 04:57:25;;;;;;;21.95;7.07;;;14.50;99.90;;;;;;5075298;28;20036;-73
2022/11/14 04:59:51;;;;;;;21.17;7.50;;;14.40;99.90;;;;;;5069494;28;20400;-74
2022/11/14 05:02:17;;;;;;;14.60;6.72;;;14.40;99.90;;;;;;5060217;28;20037;-74
2022/11/14 05:04:44;;;;;;;20.60;5.63;;;14.40;99.90;;;;;;5092756;28;20025;-74
2022/11/14 05:07:10;;;;;;;24.27;7.53;;;14.40;99.90;;;;;;5061856;28;20409;-75
2022/11/14 05:09:36;;;;;;;19.15;8.10;;;14.40;99.90;;;;;;5069252;28;20031;-74
2022/11/14 05:12:03;;;;;;;14.80;7.55;;;14.40;99.90;;;;;;5068135;28;20037;-74
2022/11/14 05:14:30;;;;;;;17.20;8.27;;;14.40;99.90;;;;;;5066676;28;20551;-74
2022/11/14 05:16:56;;;;;;;24.92;8.13;;;14.40;99.90;;;;;;5104665;28;20554;-74
2022/11/14 05:19:22;;;;;;;16.83;7.70;;;14.40;99.90;;;;;;5068457;28;20511;-74
2022/11/14 05:21:48;;;;;;;20.63;8.57;;;14.40;99.90;;;;;;5070690;28;20087;-74
2022/11/14 05:24:14;;;;;;;21.15;7.40;;;14.40;99.90;;;;;;5074092;28;20050;-73
2022/11/14 05:26:39;;;;;;;23.63;8.63;;;14.30;99.90;;;;;;5069099;28;20810;-73
2022/11/14 05:29:05;;;;;;;18.52;7.43;;;14.30;99.90;;;;;;5062718;28;20036;-73
2022/11/14 05:31:31;;;;;;;22.83;7.55;;;14.30;99.90;;;;;;5075487;28;20119;-77
2022/11/14 05:33:57;;;;;;;17.90;8.98;;;14.20;99.90;;;;;;5058929;28;20032;-73
2022/11/14 05:36:23;;;;;;;17.02;7.03;;;14.20;99.90;;;;;;5074225;28;20040;-74
2022/11/14 05:38:49;;;;;;;24.88;8.65;;;14.20;99.90;;;;;;5065596;28;20035;-74
2022/11/14 05:41:19;;;;;;;17.35;7.80;;;14.20;99.90;;;;;;5074003;28;20029;-74
2022/11/14 05:43:45;;;;;;;20.30;8.20;;;14.10;99.90;;;;;;5067334;28;20029;-74
2022/11/14 05:46:13;;;;;;;21.95;8.07;;;14.00;99.90;;;;;;5070095;28;20021;-75
2022/11/14 05:48:39;;;;;;;20.02;9.35;;;14.00;99.90;;;;;;5069036;28;20016;-74
2022/11/14 05:51:06;;;;;;;22.08;8.18;;;14.00;99.90;;;;;;5069599;28;20032;-74
2022/11/14 05:53:33;;;;;;;16.05;8.23;;;13.90;99.90;;;;;;5072272;28;20060;-74
2022/11/14 05:56:09;;;;;;;28.67;9.63;;;13.90;99.90;;;;;;5071521;28;20472;-75
2022/11/14 05:58:35;;;;;;;18.13;7.85;;;13.90;99.90;;;;;;5074059;28;20099;-74
2022/11/14 06:01:09;;;;;;;25.95;8.27;;;13.90;99.90;;;;;;5071494;28;20021;-75
2022/11/14 06:03:41;;;;;;;26.83;8.75;;;13.80;99.90;;;;;;5072489;28;20033;-74
2022/11/14 06:06:09;;;;;;;16.92;8.23;;;13.80;99.90;;;;;;5069178;28;20044;-75
2022/11/14 06:08:35;;;;;;;24.17;9.02;;;13.90;99.90;;;;;;5061726;28;20020;-77
2022/11/14 06:11:02;;;;;;;24.55;9.48;;;13.90;99.90;;;;;;5073115;28;20044;-75
2022/11/14 06:13:28;;;;;;;27.52;9.38;;;13.80;99.90;;;;;;5066051;28;20102;-75
2022/11/14 06:16:00;;;;;;;20.85;10.02;;;13.80;99.90;;;;;;5067193;28;20029;-75
2022/11/14 06:18:27;;;;;;;24.08;10.23;;;13.80;99.90;;;;;;5057866;28;20428;-74
2022/11/14 06:20:53;;;;;;;24.27;10.80;;;13.90;99.90;;;;;;5062781;28;20021;-74
2022/11/14 06:23:19;;;;;;;18.33;9.68;;;13.90;99.90;;;;;;5099507;28;20057;-74
2022/11/14 06:25:45;;;;;;;17.63;9.02;;;13.90;99.90;;;;;;5071957;28;20036;-75
2022/11/14 06:28:10;;;;;;;27.65;10.40;;;13.90;99.90;;;;;;5074014;28;20025;-74
2022/11/14 06:30:38;;;;;;;27.92;10.32;;;13.80;99.90;;;;;;5072456;28;20056;-74
2022/11/14 06:33:03;;;;;;;28.83;10.35;;;13.80;99.90;;;;;;5074262;28;20080;-75
2022/11/14 06:35:32;;;;;;;22.95;11.32;;;13.80;99.90;;;;;;5073772;28;20579;-75
2022/11/14 06:37:59;;;;;;;18.38;10.25;;;13.80;99.90;;;;;;5075405;28;20449;-75
2022/11/14 06:40:25;;;;;;;24.90;10.00;;;13.80;99.90;;;;;;5069137;28;20044;-74
2022/11/14 06:42:53;;;;;;;19.05;9.52;;;13.90;99.90;;;;;;5095449;28;20028;-75
2022/11/14 06:45:19;;;;;;;23.27;10.77;;;13.90;99.90;;;;;;5074044;28;20032;-75
2022/11/14 06:47:45;;;;;;;23.52;9.80;;;14.00;99.90;;;;;;5079327;28;20025;-75
2022/11/14 06:50:11;;;;;;;25.90;10.00;;;14.00;99.90;;;;;;5070702;28;20092;-74
2022/11/14 06:52:36;;;;;;;27.55;10.10;;;14.00;99.90;;;;;;5074072;28;20488;-74
2022/11/14 06:55:02;;;;;;;19.77;9.52;;;14.00;99.90;;;;;;5076785;28;20438;-74
2022/11/14 06:57:28;;;;;;;23.35;11.13;;;13.90;99.90;;;;;;5074123;28;20029;-74
2022/11/14 06:59:54;;;;;;;27.80;10.55;;;13.90;99.90;;;;;;5069059;28;20096;-74
2022/11/14 07:02:20;;;;;;;23.75;11.05;;;13.90;99.90;;;;;;5062137;28;20036;-74
2022/11/14 07:04:45;;;;;;;27.35;10.57;;;13.90;99.90;;;;;;5065492;28;20017;-75
2022/11/14 07:07:11;;;;;;;17.60;9.90;;;13.90;99.90;;;;;;5067054;28;20110;-75
2022/11/14 07:09:37;;;;;;;21.90;10.50;;;13.90;99.90;;;;;;5068289;28;20013;-75
2022/11/14 07:12:03;;;;;;;19.58;10.60;;;14.00;99.90;;;;;;5107293;28;20024;-75
2022/11/14 07:14:29;;;;;;;23.77;11.20;;;14.00;99.90;;;;;;5068947;28;20075;-75
2022/11/14 07:16:55;;;;;;;20.25;9.93;;;14.00;99.90;;;;;;5068743;28;20100;-75
2022/11/14 07:19:20;;;;;;;20.60;11.18;;;13.90;99.90;;;;;;5072359;28;20028;-75
2022/11/14 07:21:47;;;;;;;21.30;11.07;;;13.90;99.90;;;;;;5074220;28;20089;-74
2022/11/14 07:24:13;;;;;;;19.42;11.18;;;13.90;99.90;;;;;;5072941;28;20053;-74
2022/11/14 07:26:39;;;;;;;18.00;10.50;;;14.00;99.90;;;;;;5077160;28;20595;-75
2022/11/14 07:29:04;;;;;;;23.90;10.50;;;14.00;99.90;;;;;;5069686;28;20044;-74
2022/11/14 07:31:30;;;;;;;18.08;10.85;;;14.00;99.90;;;;;;5078858;28;20028;-75
2022/11/14 07:33:56;;;;;;;23.95;10.45;;;14.00;99.90;;;;;;5063822;28;20493;-74
2022/11/14 07:36:22;;;;;;;26.58;11.38;;;14.00;99.90;;;;;;5073524;28;20032;-75
2022/11/14 07:38:48;;;;;;;20.15;11.32;;;14.00;99.90;;;;;;5074894;28;20471;-74
2022/11/14 07:41:15;;;;;;;23.23;10.52;;;14.00;99.90;;;;;;5072489;28;20073;-74
2022/11/14 07:43:41;;;;;;;23.92;11.68;;;14.00;99.90;;;;;;5064034;28;20032;-76
2022/11/14 07:46:13;;;;;;;21.55;11.50;;;14.00;99.90;;;;;;5072552;28;20028;-75
2022/11/14 07:48:38;;;;;;;24.45;12.27;;;14.00;99.90;;;;;;5065682;28;20088;-74
2022/11/14 07:51:08;;;;;;;27.13;11.90;;;14.20;99.90;;;;;;5074916;28;20021;-75
2022/11/14 07:53:34;;;;;;;24.20;11.35;;;14.30;99.90;;;;;;5073012;28;20389;-75
2022/11/14 07:56:05;;;;;;;29.65;11.75;;;14.30;99.90;;;;;;5073242;28;20086;-75
2022/11/14 07:58:33;;;;;;;24.45;10.73;;;14.40;99.90;;;;;;5074341;28;20174;-74
2022/11/14 08:01:01;;;;;;;43.45;13.80;;;14.40;99.90;;;;;;5092491;28;20033;-74
2022/11/14 08:03:27;;;;;;;19.10;10.23;;;14.50;99.90;;;;;;5075102;28;20029;-74
2022/11/14 08:06:09;;;;;;;19.10;11.07;;;14.60;99.90;;;;;;5074796;28;20049;-74
2022/11/14 08:08:34;;;;;;;29.50;10.70;;;14.80;99.90;;;;;;5068371;28;20017;-74
2022/11/14 08:11:01;;;;;;;27.15;11.77;;;14.90;99.90;;;;;;5077594;28;20495;-74
2022/11/14 08:13:27;;;;;;;26.98;11.15;;;15.00;99.90;;;;;;5075453;28;20100;-75
2022/11/14 08:15:53;;;;;;;20.35;9.73;;;15.10;99.90;;;;;;5077757;28;20029;-76
2022/11/14 08:18:19;;;;;;;22.67;9.35;;;15.20;99.90;;;;;;5073990;28;20028;-75
2022/11/14 08:20:45;;;;;;;23.63;10.10;;;15.20;99.90;;;;;;5066448;28;20443;-74
2022/11/14 08:23:11;;;;;;;22.42;10.55;;;15.30;99.90;;;;;;5063922;28;20017;-75
2022/11/14 08:25:37;;;;;;;26.38;11.20;;;15.40;99.90;;;;;;5076682;28;20058;-74
2022/11/14 08:28:03;;;;;;;17.67;10.13;;;15.30;99.90;;;;;;5075141;28;20496;-75
2022/11/14 08:30:30;;;;;;;20.63;10.57;;;15.40;99.90;;;;;;5073524;28;20050;-74
2022/11/14 08:32:56;;;;;;;20.60;11.07;;;15.40;99.90;;;;;;5076070;28;20017;-75
2022/11/14 08:35:22;;;;;;;17.50;8.68;;;15.50;99.90;;;;;;5070892;28;20024;-75
2022/11/14 08:37:48;;;;;;;18.67;10.10;;;15.50;99.90;;;;;;5077392;28;20021;-75
2022/11/14 08:40:14;;;;;;;19.13;9.05;;;15.60;99.90;;;;;;5075057;28;20558;-75
2022/11/14 08:42:40;;;;;;;21.60;10.88;;;15.70;99.90;;;;;;5077703;28;20029;-74
2022/11/14 08:45:06;;;;;;;18.17;9.77;;;15.70;99.90;;;;;;5071129;28;20032;-74
2022/11/14 08:47:32;;;;;;;18.90;10.13;;;15.90;99.90;;;;;;5069671;28;20063;-74
2022/11/14 08:49:58;;;;;;;27.98;10.65;;;15.90;99.90;;;;;;5070581;28;20393;-75
2022/11/14 08:52:24;;;;;;;25.83;9.85;;;16.00;99.90;;;;;;5075139;28;20099;-75
2022/11/14 08:54:50;;;;;;;20.98;9.63;;;16.10;99.90;;;;;;5070167;28;20024;-75
2022/11/14 08:57:15;;;;;;;26.83;9.48;;;16.20;99.90;;;;;;5059121;28;20025;-75
2022/11/14 08:59:41;;;;;;;22.60;9.90;;;16.30;99.90;;;;;;5065220;28;20044;-74
2022/11/14 09:02:12;;;;;;;20.63;8.75;;;16.40;99.90;;;;;;5065779;28;20025;-74
2022/11/14 09:04:38;;;;;;;;;;;16.50;99.90;;;;;;5066553;28;20029;-75
2022/11/14 09:07:04;;;;;;;15.18;8.35;;;16.60;99.90;;;;;;5064388;28;19912;-76
2022/11/14 09:09:30;;;;;;;17.63;8.85;;;16.50;99.90;;;;;;5067799;28;20412;-74
2022/11/14 09:11:56;;;;;;;16.52;8.75;;;16.60;99.90;;;;;;5072245;28;20536;-75
2022/11/14 09:14:22;;;;;;;17.50;8.02;;;16.70;99.90;;;;;;5070906;28;20036;-75
2022/11/14 09:16:48;;;;;;;20.55;8.07;;;16.80;99.90;;;;;;5068051;28;20021;-74
2022/11/14 09:19:14;;;;;;;14.95;9.18;;;16.70;99.90;;;;;;5069837;28;20066;-74
2022/11/14 09:21:40;;;;;;;18.42;8.63;;;16.80;99.90;;;;;;5072910;28;20021;-74
2022/11/14 09:24:06;;;;;;;25.27;9.05;;;16.80;99.90;;;;;;5073201;28;20052;-75
2022/11/14 09:26:32;;;;;;;17.83;8.63;;;16.90;99.90;;;;;;5074007;28;20017;-74
2022/11/14 09:28:58;;;;;;;25.50;8.15;;;17.10;99.90;;;;;;5060345;28;20464;-74
2022/11/14 09:31:24;;;;;;;21.55;7.55;;;17.20;99.90;;;;;;5072497;28;20531;-75
2022/11/14 09:33:50;;;;;;;14.50;8.40;;;17.30;99.90;;;;;;5063184;28;20029;-74
2022/11/14 09:36:17;;;;;;;16.73;7.75;;;17.40;99.90;;;;;;5073049;28;20028;-76
2022/11/14 09:38:43;;;;;;;23.15;8.50;;;17.40;99.90;;;;;;5064021;28;20024;-76
2022/11/14 09:41:32;;;;;;;18.70;8.40;;;17.30;99.90;;;;;;5074860;28;20032;-75
2022/11/14 09:44:39;;;;;;;20.10;8.00;;;17.20;99.90;;;;;;5066766;28;20115;-76
2022/11/14 09:47:16;;;;;;;18.33;7.55;;;17.30;99.90;;;;;;5066856;28;20023;-75
2022/11/14 09:49:46;;;;;;;16.55;8.73;;;17.50;99.90;;;;;;5098916;28;20037;-76
2022/11/14 09:52:34;;;;;;;16.77;7.97;;;17.70;99.90;;;;;;5071300;28;20017;-76
2022/11/14 09:55:11;;;;;;;12.25;6.95;;;17.80;99.90;;;;;;5068443;28;20040;-76
2022/11/14 09:57:39;;;;;;;17.73;7.35;;;18.00;99.90;;;;;;5070977;28;20017;-76
2022/11/14 10:00:13;;;;;;;19.40;7.40;;;18.00;99.90;;;;;;5064137;28;20029;-75
2022/11/14 10:03:06;;;;;;;22.08;8.15;;;18.00;99.90;;;;;;5074251;28;20103;-76
2022/11/14 10:06:01;;;;;;;13.80;7.13;;;17.90;99.90;;;;;;5074199;28;20028;-76
2022/11/14 10:09:09;;;;;;;16.38;8.40;;;17.90;99.90;;;;;;5060768;28;20041;-76
2022/11/14 10:11:46;;;;;;;9.88;7.00;;;17.80;99.90;;;;;;5059045;28;20425;-77
2022/11/14 10:14:25;;;;;;;22.70;8.45;;;17.60;99.90;;;;;;5067339;28;20083;-77
2022/11/14 10:16:59;;;;;;;15.85;8.68;;;17.70;99.90;;;;;;5067523;28;20025;-76
2022/11/14 10:19:46;;;;;;;14.85;7.25;;;17.70;99.90;;;;;;5071695;28;20050;-75
2022/11/14 10:22:18;;;;;;;14.32;8.50;;;17.50;99.90;;;;;;5075561;28;20116;-76
2022/11/14 10:25:21;;;;;;;19.52;7.53;;;17.40;99.90;;;;;;5073834;28;20052;-76
2022/11/14 10:28:11;;;;;;;19.83;8.27;;;17.50;99.90;;;;;;5073619;28;20020;-76
2022/11/14 10:30:53;;;;;;;15.35;6.78;;;17.60;99.90;;;;;;5075005;28;20493;-76
2022/11/14 10:33:56;;;;;;;16.35;6.90;;;17.60;99.90;;;;;;5073686;28;20029;-76
2022/11/14 10:36:42;;;;;;;13.73;7.95;;;17.70;99.90;;;;;;5073191;28;20031;-76
2022/11/14 10:39:23;;;;;;;18.77;7.38;;;17.90;99.90;;;;;;5071810;28;20086;-76
2022/11/14 10:41:55;;;;;;;21.50;7.90;;;18.10;99.90;;;;;;5075349;28;20039;-76
2022/11/14 10:44:27;;;;;;;14.68;6.78;;;18.20;99.90;;;;;;5067408;28;20092;-76
2022/11/14 10:46:59;;;;;;;14.15;6.97;;;18.30;99.90;;;;;;5071799;28;20017;-76
2022/11/14 10:49:30;;;;;;;10.57;6.45;;;18.20;99.90;;;;;;5072134;28;20055;-76
2022/11/14 10:52:00;;;;;;;13.55;7.28;;;18.40;99.90;;;;;;5066045;28;20024;-76
2022/11/14 10:54:46;;;;;;;12.60;6.85;;;18.30;99.90;;;;;;5070564;28;20067;-76
2022/11/14 10:57:18;;;;;;;16.50;7.00;;;18.30;99.90;;;;;;5075146;28;20395;-76
2022/11/14 10:59:44;;;;;;;16.45;7.10;;;18.20;99.90;;;;;;5070665;28;20032;-76
2022/11/14 11:02:10;;;;;;;11.73;7.35;;;18.10;99.90;;;;;;5074944;28;20492;-76
2022/11/14 11:04:41;;;;;;;10.02;6.57;;;18.00;99.90;;;;;;5069589;28;20032;-76
2022/11/14 11:07:07;;;;;;;13.90;6.80;;;18.00;99.90;;;;;;5073457;28;20024;-76
2022/11/14 11:12:42;;;;;;;15.20;6.53;;;17.70;99.90;;;;;;5075404;28;20028;-76
2022/11/14 11:15:25;;;;;;;13.38;7.03;;;17.70;99.90;;;;;;5072561;28;20093;-76
2022/11/14 11:17:55;;;;;;;10.82;6.47;;;17.60;99.90;;;;;;5072280;28;20020;-75
2022/11/14 11:20:34;;;;;;;9.43;7.45;;;17.50;99.90;;;;;;5073092;28;20035;-76
2022/11/14 11:23:25;;;;;;;16.52;7.60;;;17.50;99.90;;;;;;5087752;28;20570;-76
2022/11/14 11:26:20;;;;;;;16.05;7.28;;;17.40;99.90;;;;;;5072976;28;20028;-75
2022/11/14 11:29:02;;;;;;;17.80;7.80;;;17.40;99.90;;;;;;5072314;28;20035;-76
2022/11/14 11:31:49;;;;;;;15.45;7.05;;;17.50;99.90;;;;;;5070180;28;20020;-76
2022/11/14 11:34:22;;;;;;;18.83;7.50;;;17.50;99.90;;;;;;5074710;28;20035;-76
2022/11/14 11:37:16;;;;;;;13.10;7.97;;;17.60;99.90;;;;;;5068434;28;20082;-76
2022/11/14 11:40:04;;;;;;;13.23;7.20;;;17.60;99.90;;;;;;5069790;28;20033;-75
2022/11/14 11:42:39;;;;;;;22.42;7.55;;;17.80;99.90;;;;;;5077940;28;20043;-75
2022/11/14 11:45:16;;;;;;;15.10;7.50;;;17.90;99.90;;;;;;5075637;28;20044;-76
2022/11/14 11:47:47;;;;;;;14.50;7.55;;;17.90;99.90;;;;;;5076990;28;20088;-75
2022/11/14 11:50:17;;;;;;;;;;;17.90;99.90;;;;;;5072671;28;20032;-75
2022/11/14 11:52:47;;;;;;;;;;;18.00;99.90;;;;;;5077107;28;20331;-75
2022/11/14 11:55:24;;;;;;;16.10;6.88;;;18.10;99.90;;;;;;5074159;28;19951;-75
2022/11/14 11:58:15;;;;;;;10.50;6.68;;;18.20;99.90;;;;;;5096360;28;20107;-75
2022/11/14 12:00:41;;;;;;;13.40;7.22;;;18.20;99.90;;;;;;5070888;28;20115;-75
2022/11/14 12:03:14;;;;;;;16.20;6.82;;;18.20;99.90;;;;;;5074443;28;20127;-76
2022/11/14 12:05:58;;;;;;;9.98;6.55;;;18.00;99.90;;;;;;5089056;28;20094;-76
2022/11/14 12:08:37;;;;;;;15.88;7.13;;;18.00;99.90;;;;;;5074775;28;20074;-75
2022/11/14 12:11:10;;;;;;;13.63;6.90;;;18.10;99.90;;;;;;5076516;28;20021;-75
2022/11/14 12:13:48;;;;;;;10.90;6.85;;;18.20;99.90;;;;;;5074902;28;20492;-75
2022/11/14 12:16:36;;;;;;;11.82;6.40;;;18.30;99.90;;;;;;5066819;28;20024;-77
2022/11/14 12:19:08;;;;;;;11.98;6.75;;;18.40;99.90;;;;;;5068131;28;20029;-76
2022/11/14 12:21:46;;;;;;;16.20;6.53;;;18.40;99.90;;;;;;5077131;28;20401;-74
2022/11/14 12:24:36;;;;;;;16.60;6.30;;;18.40;99.90;;;;;;5072880;28;20066;-77
2022/11/14 12:27:28;;;;;;;10.30;6.30;;;18.50;99.90;;;;;;5077219;28;20025;-76
2022/11/14 12:30:22;;;;;;;15.95;7.43;;;18.70;99.90;;;;;;5075166;28;20028;-77
2022/11/14 12:33:00;;;;;;;9.32;6.63;;;18.50;99.90;;;;;;5074882;28;20114;-77
2022/11/14 12:35:34;;;;;;;15.38;7.10;;;18.30;99.90;;;;;;5073916;28;20028;-75
2022/11/14 12:38:12;;;;;;;13.43;6.43;;;18.30;99.90;;;;;;5076212;28;20027;-75
2022/11/14 12:40:40;;;;;;;16.80;7.50;;;18.30;99.90;;;;;;5098560;28;20604;-75
2022/11/14 12:43:38;;;;;;;9.65;6.65;;;18.40;99.90;;;;;;5059541;28;20029;-75
2022/11/14 12:46:12;;;;;;;13.98;6.97;;;18.40;99.90;;;;;;5060857;28;20032;-75
2022/11/14 12:48:45;;;;;;;12.52;6.82;;;18.40;99.90;;;;;;5074783;28;20020;-76
2022/11/14 12:51:26;;;;;;;9.90;6.88;;;18.40;99.90;;;;;;5074661;28;20078;-76